Time;durP1;ratioP1;P1;durP2;ratioP2;P2;SDS_P1;SDS_P2;PMS_P1;PMS_P2;Temp;Humidity;BMP_temperature;BMP_pressure;BME280_temperature;BME280_humidity;BME280_pressure;Samples;Min_cycle;Max_cycle;Signal;HPM_P1;HPM_P2
2022/04/11 00:00:53;;;;;;;11.75;5.72;;;;;;;;;;4959921;28;20287;-83
2022/04/11 00:03:19;;;;;;;12.70;4.65;;;;;;;;;;4975539;28;21062;-82
2022/04/11 00:05:45;;;;;;;10.65;5.35;;;;;;;;;;4966446;28;20069;-82
2022/04/11 00:08:11;;;;;;;14.90;5.47;;;;;;;;;;4975499;28;20030;-82
2022/04/11 00:10:37;;;;;;;15.05;5.68;;;;;;;;;;4965843;28;20081;-83
2022/04/11 00:13:04;;;;;;;10.02;4.95;;;;;;;;;;4962614;28;20446;-82
2022/04/11 00:15:33;;;;;;;11.73;5.28;;;;;;;;;;4968105;28;20022;-82
2022/04/11 00:18:00;;;;;;;11.77;5.75;;;;;;;;;;4966416;28;20018;-83
2022/04/11 00:20:26;;;;;;;10.45;5.28;;;;;;;;;;4981303;28;20045;-82
2022/04/11 00:22:52;;;;;;;16.10;5.25;;;;;;;;;;4968636;28;20046;-83
2022/04/11 00:25:18;;;;;;;9.20;4.95;;;;;;;;;;4968921;28;20113;-82
2022/04/11 00:27:44;;;;;;;11.88;5.45;;;;;;;;;;4962403;28;20594;-82
2022/04/11 00:30:10;;;;;;;10.80;4.68;;;;;;;;;;4967850;28;20129;-82
2022/04/11 00:32:44;;;;;;;10.90;5.30;;;;;;;;;;4969395;28;20034;-82
2022/04/11 00:35:13;;;;;;;13.02;5.40;;;;;;;;;;4965461;28;20414;-82
2022/04/11 00:37:39;;;;;;;11.75;4.93;;;;;;;;;;4971952;28;20052;-83
2022/04/11 00:40:07;;;;;;;16.02;5.20;;;;;;;;;;4982243;28;20050;-82
2022/04/11 00:42:33;;;;;;;13.05;5.15;;;;;;;;;;4981701;28;20588;-82
2022/04/11 00:45:03;;;;;;;11.70;5.13;;;;;;;;;;4970241;28;20062;-82
2022/04/11 00:47:30;;;;;;;10.95;5.28;;;;;;;;;;4963199;28;20140;-82
2022/04/11 00:50:00;;;;;;;12.13;4.80;;;;;;;;;;4969988;28;20121;-83
2022/04/11 00:52:26;;;;;;;15.25;5.30;;;;;;;;;;4969962;28;20061;-83
2022/04/11 00:54:53;;;;;;;12.63;5.13;;;;;;;;;;4981189;28;20560;-82
2022/04/11 00:57:19;;;;;;;8.82;4.82;;;;;;;;;;4979608;28;20030;-82
2022/04/11 00:59:45;;;;;;;11.40;5.20;;;;;;;;;;4986153;28;20061;-83
2022/04/11 01:02:11;;;;;;;11.23;4.88;;;;;;;;;;4968438;28;20043;-82
2022/04/11 01:04:37;;;;;;;10.75;5.22;;;;;;;;;;4971873;28;20093;-82
2022/04/11 01:07:03;;;;;;;9.20;4.55;;;;;;;;;;4960268;28;20582;-82
2022/04/11 01:09:29;;;;;;;11.82;5.43;;;;;;;;;;4972525;28;20034;-82
2022/04/11 01:11:55;;;;;;;10.35;4.88;;;;;;;;;;4986469;28;20396;-82
2022/04/11 01:14:21;;;;;;;11.52;4.78;;;;;;;;;;4967076;28;20485;-83
2022/04/11 01:16:48;;;;;;;6.97;4.53;;;;;;;;;;4965342;28;20053;-82
2022/04/11 01:19:15;;;;;;;13.95;4.82;;;;;;;;;;4970685;28;20045;-83
2022/04/11 01:21:41;;;;;;;10.75;4.85;;;;;;;;;;4978590;28;20555;-82
2022/04/11 01:24:07;;;;;;;10.52;4.38;;;;;;;;;;4966791;28;20048;-83
2022/04/11 01:26:34;;;;;;;14.98;4.82;;;;;;;;;;4969226;28;20038;-82
2022/04/11 01:29:00;;;;;;;9.07;4.75;;;;;;;;;;4967259;28;20828;-82
2022/04/11 01:31:26;;;;;;;9.85;4.55;;;;;;;;;;4961931;28;20030;-82
2022/04/11 01:33:52;;;;;;;10.85;5.00;;;;;;;;;;4967483;28;20505;-82
2022/04/11 01:36:18;;;;;;;10.55;5.22;;;;;;;;;;4967015;28;20089;-82
2022/04/11 01:38:44;;;;;;;12.23;4.93;;;;;;;;;;4981567;28;20035;-82
2022/04/11 01:41:16;;;;;;;12.15;5.20;;;;;;;;;;4982643;28;20054;-82
2022/04/11 01:43:49;;;;;;;15.60;5.40;;;;;;;;;;4983078;28;20037;-82
2022/04/11 01:46:15;;;;;;;12.02;5.07;;;;;;;;;;4984994;28;20023;-82
2022/04/11 01:48:41;;;;;;;10.40;5.00;;;;;;;;;;4979550;28;20029;-82
2022/04/11 01:51:07;;;;;;;11.35;4.85;;;;;;;;;;4975962;28;20033;-82
2022/04/11 01:53:33;;;;;;;10.32;4.55;;;;;;;;;;4972985;28;20067;-82
2022/04/11 01:55:59;;;;;;;9.45;4.13;;;;;;;;;;4970211;28;20078;-82
2022/04/11 01:58:25;;;;;;;9.77;5.10;;;;;;;;;;4983774;28;20478;-82
2022/04/11 02:00:51;;;;;;;12.75;5.18;;;;;;;;;;4963306;28;20070;-83
2022/04/11 02:03:17;;;;;;;9.10;4.43;;;;;;;;;;4967024;28;20061;-82
2022/04/11 02:05:44;;;;;;;8.70;4.53;;;;;;;;;;4979464;28;20057;-82
2022/04/11 02:08:10;;;;;;;13.63;5.32;;;;;;;;;;4984785;28;20041;-82
2022/04/11 02:10:38;;;;;;;10.43;4.13;;;;;;;;;;4986409;28;20030;-83
2022/04/11 02:13:04;;;;;;;8.55;4.72;;;;;;;;;;4972918;28;20085;-82
2022/04/11 02:15:30;;;;;;;17.77;5.30;;;;;;;;;;4968074;28;20027;-82
2022/04/11 02:17:57;;;;;;;13.45;4.53;;;;;;;;;;4967625;28;20030;-82
2022/04/11 02:20:23;;;;;;;9.18;4.10;;;;;;;;;;4974079;28;20417;-82
2022/04/11 02:22:56;;;;;;;10.43;4.45;;;;;;;;;;4970742;28;20058;-82
2022/04/11 02:25:24;;;;;;;14.18;4.25;;;;;;;;;;4978404;28;20034;-82
2022/04/11 02:27:50;;;;;;;17.48;4.90;;;;;;;;;;4985269;28;20064;-83
2022/04/11 02:30:17;;;;;;;9.98;4.70;;;;;;;;;;4965320;28;20030;-82
2022/04/11 02:32:43;;;;;;;10.20;4.63;;;;;;;;;;4967540;28;20039;-82
2022/04/11 02:35:10;;;;;;;9.27;4.30;;;;;;;;;;4983271;28;20422;-82
2022/04/11 02:37:36;;;;;;;9.55;4.30;;;;;;;;;;4962447;28;20027;-83
2022/04/11 02:40:03;;;;;;;11.15;4.28;;;;;;;;;;4979701;28;20044;-82
2022/04/11 02:42:30;;;;;;;11.13;4.53;;;;;;;;;;4979499;28;20030;-82
2022/04/11 02:44:56;;;;;;;11.43;3.90;;;;;;;;;;4964956;28;20532;-82
2022/04/11 02:47:22;;;;;;;9.43;4.35;;;;;;;;;;4988744;28;20037;-82
2022/04/11 02:49:48;;;;;;;7.07;4.03;;;;;;;;;;4966368;28;20035;-82
2022/04/11 02:52:15;;;;;;;11.50;4.57;;;;;;;;;;4983305;28;20038;-82
2022/04/11 02:54:41;;;;;;;7.20;4.57;;;;;;;;;;4980384;28;20712;-83
2022/04/11 02:57:07;;;;;;;9.55;4.35;;;;;;;;;;4965040;28;20121;-83
2022/04/11 02:59:35;;;;;;;13.32;4.95;;;;;;;;;;4981631;28;20536;-82
2022/04/11 03:02:01;;;;;;;5.90;3.58;;;;;;;;;;4963932;28;20115;-82
2022/04/11 03:04:27;;;;;;;5.95;3.80;;;;;;;;;;4976385;28;20034;-82
2022/04/11 03:06:54;;;;;;;9.13;4.53;;;;;;;;;;4969604;28;20580;-82
2022/04/11 03:09:20;;;;;;;10.10;4.63;;;;;;;;;;4969602;28;20042;-82
2022/04/11 03:11:46;;;;;;;7.82;4.15;;;;;;;;;;4970230;28;20425;-83
2022/04/11 03:14:12;;;;;;;9.63;5.05;;;;;;;;;;4966286;28;20046;-82
2022/04/11 03:16:40;;;;;;;7.72;4.30;;;;;;;;;;4981324;28;20060;-83
2022/04/11 03:19:06;;;;;;;11.10;4.32;;;;;;;;;;4968421;28;20026;-82
2022/04/11 03:21:32;;;;;;;8.55;4.70;;;;;;;;;;4967658;28;20050;-82
2022/04/11 03:23:59;;;;;;;8.98;4.40;;;;;;;;;;4965988;28;20126;-83
2022/04/11 03:26:25;;;;;;;10.30;4.47;;;;;;;;;;4961804;28;20042;-82
2022/04/11 03:28:51;;;;;;;14.25;4.68;;;;;;;;;;4967647;28;20083;-83
2022/04/11 03:31:17;;;;;;;9.00;4.57;;;;;;;;;;4984369;28;20026;-83
2022/04/11 03:33:43;;;;;;;8.85;4.22;;;;;;;;;;4964445;28;20026;-82
2022/04/11 03:36:10;;;;;;;10.43;4.35;;;;;;;;;;4980172;28;20030;-82
2022/04/11 03:38:36;;;;;;;8.45;3.92;;;;;;;;;;4969102;28;20018;-82
2022/04/11 03:41:08;;;;;;;10.75;4.15;;;;;;;;;;4984336;28;20488;-82
2022/04/11 03:43:34;;;;;;;10.00;3.92;;;;;;;;;;4971793;28;20049;-82
2022/04/11 03:46:01;;;;;;;7.88;4.63;;;;;;;;;;4977383;28;20145;-83
2022/04/11 03:48:27;;;;;;;11.30;4.47;;;;;;;;;;4978093;28;20093;-82
2022/04/11 03:50:53;;;;;;;14.68;4.45;;;;;;;;;;4981628;28;20117;-82
2022/04/11 03:53:19;;;;;;;13.68;4.30;;;;;;;;;;4978456;28;20041;-82
2022/04/11 03:55:45;;;;;;;12.50;5.07;;;;;;;;;;4965230;28;20018;-82
2022/04/11 03:58:11;;;;;;;12.05;4.15;;;;;;;;;;4966439;28;20030;-82
2022/04/11 04:00:37;;;;;;;12.95;5.18;;;;;;;;;;4968057;28;20038;-82
2022/04/11 04:03:04;;;;;;;7.20;4.03;;;;;;;;;;4968675;28;20034;-82
2022/04/11 04:05:31;;;;;;;13.20;4.22;;;;;;;;;;4967058;28;20457;-82
2022/04/11 04:07:57;;;;;;;10.00;5.03;;;;;;;;;;4985435;28;20029;-82
2022/04/11 04:10:26;;;;;;;10.32;4.07;;;;;;;;;;4969963;28;20050;-82
2022/04/11 04:12:57;;;;;;;11.07;3.95;;;;;;;;;;4979406;28;20053;-82
2022/04/11 04:15:23;;;;;;;14.40;4.20;;;;;;;;;;4985841;28;20109;-82
2022/04/11 04:17:49;;;;;;;15.55;4.25;;;;;;;;;;4967581;28;20112;-82
2022/04/11 04:20:15;;;;;;;7.63;3.85;;;;;;;;;;4968375;28;20567;-83
2022/04/11 04:22:41;;;;;;;11.65;3.83;;;;;;;;;;4967499;28;20030;-82
2022/04/11 04:25:08;;;;;;;9.20;4.60;;;;;;;;;;4979291;28;20123;-83
2022/04/11 04:27:34;;;;;;;9.48;3.95;;;;;;;;;;4975322;28;20041;-82
2022/04/11 04:30:00;;;;;;;9.05;4.32;;;;;;;;;;4969107;28;20037;-83
2022/04/11 04:32:27;;;;;;;11.10;3.92;;;;;;;;;;4986133;28;20465;-82
2022/04/11 04:34:53;;;;;;;9.52;5.03;;;;;;;;;;4982179;28;20102;-82
2022/04/11 04:37:19;;;;;;;10.27;4.30;;;;;;;;;;4978248;28;20139;-82
2022/04/11 04:39:45;;;;;;;13.15;4.38;;;;;;;;;;4985502;28;20033;-82
2022/04/11 04:42:22;;;;;;;10.70;4.28;;;;;;;;;;4964536;28;20978;-82
2022/04/11 04:44:48;;;;;;;10.75;4.38;;;;;;;;;;4982156;28;20808;-82
2022/04/11 04:47:15;;;;;;;7.97;3.80;;;;;;;;;;4984960;28;20038;-82
2022/04/11 04:49:41;;;;;;;13.88;5.35;;;;;;;;;;4965540;28;20379;-82
2022/04/11 04:52:08;;;;;;;6.97;4.20;;;;;;;;;;4981811;28;20088;-82
2022/04/11 04:54:34;;;;;;;12.82;4.32;;;;;;;;;;4961910;28;20034;-82
2022/04/11 04:57:00;;;;;;;9.35;4.90;;;;;;;;;;4978994;28;20038;-83
2022/04/11 04:59:26;;;;;;;11.65;4.28;;;;;;;;;;4985712;28;20031;-82
2022/04/11 05:01:52;;;;;;;9.15;4.38;;;;;;;;;;4963448;28;20034;-82
2022/04/11 05:04:18;;;;;;;10.07;4.47;;;;;;;;;;4979773;28;20040;-82
2022/04/11 05:06:44;;;;;;;18.13;4.70;;;;;;;;;;4965134;28;20129;-83
2022/04/11 05:09:10;;;;;;;16.67;5.72;;;;;;;;;;4963891;28;20081;-82
2022/04/11 05:11:36;;;;;;;13.88;4.53;;;;;;;;;;4967584;28;20042;-82
2022/04/11 05:14:02;;;;;;;12.95;5.30;;;;;;;;;;4966607;28;20401;-82
2022/04/11 05:16:28;;;;;;;8.48;4.60;;;;;;;;;;4967929;28;20517;-83
2022/04/11 05:18:54;;;;;;;10.98;3.83;;;;;;;;;;4985165;28;20030;-82
2022/04/11 05:21:21;;;;;;;11.05;4.07;;;;;;;;;;4983818;28;20033;-83
2022/04/11 05:23:47;;;;;;;17.02;4.88;;;;;;;;;;4967408;28;20039;-82
2022/04/11 05:26:13;;;;;;;11.50;4.65;;;;;;;;;;4982476;28;20031;-82
2022/04/11 05:28:39;;;;;;;13.18;5.40;;;;;;;;;;4964246;28;20505;-82
2022/04/11 05:31:05;;;;;;;17.63;4.45;;;;;;;;;;4970783;28;20149;-82
2022/04/11 05:33:31;;;;;;;10.60;5.13;;;;;;;;;;4968171;28;20117;-82
2022/04/11 05:35:57;;;;;;;9.02;4.30;;;;;;;;;;4970033;28;20054;-82
2022/04/11 05:38:23;;;;;;;13.55;4.38;;;;;;;;;;4981367;28;20771;-82
2022/04/11 05:40:49;;;;;;;15.23;4.35;;;;;;;;;;4969514;28;20482;-83
2022/04/11 05:43:15;;;;;;;18.08;4.40;;;;;;;;;;4962652;28;20093;-83
2022/04/11 05:45:42;;;;;;;7.22;3.97;;;;;;;;;;4967793;28;20049;-82
2022/04/11 05:48:09;;;;;;;13.25;4.78;;;;;;;;;;4982945;28;20501;-82
2022/04/11 05:50:35;;;;;;;7.00;3.97;;;;;;;;;;4969128;28;20453;-83
2022/04/11 05:53:01;;;;;;;18.42;5.35;;;;;;;;;;4984175;28;20027;-83
2022/04/11 05:55:28;;;;;;;15.68;4.40;;;;;;;;;;4966911;28;20034;-82
2022/04/11 05:57:54;;;;;;;7.18;3.95;;;;;;;;;;4964322;28;20031;-83
2022/04/11 06:00:20;;;;;;;8.23;3.95;;;;;;;;;;4969179;28;20034;-83
2022/04/11 06:02:46;;;;;;;7.82;4.20;;;;;;;;;;4964449;28;20062;-83
2022/04/11 06:05:12;;;;;;;8.82;3.67;;;;;;;;;;4983209;28;20107;-82
2022/04/11 06:07:39;;;;;;;11.55;4.05;;;;;;;;;;4981519;28;20026;-83
2022/04/11 06:10:07;;;;;;;9.20;3.67;;;;;;;;;;4962042;28;20035;-82
2022/04/11 06:12:33;;;;;;;12.32;4.13;;;;;;;;;;4979334;28;20113;-82
2022/04/11 06:14:59;;;;;;;13.98;4.28;;;;;;;;;;4977380;28;20527;-82
2022/04/11 06:17:25;;;;;;;6.07;3.28;;;;;;;;;;4967205;28;20039;-82
2022/04/11 06:19:52;;;;;;;6.38;4.07;;;;;;;;;;4978636;28;20089;-82
2022/04/11 06:22:18;;;;;;;8.40;3.72;;;;;;;;;;4966041;28;20136;-82
2022/04/11 06:24:45;;;;;;;7.05;3.42;;;;;;;;;;4979756;28;20060;-82
2022/04/11 06:27:11;;;;;;;10.43;3.63;;;;;;;;;;4983977;28;20034;-82
2022/04/11 06:29:37;;;;;;;8.13;3.80;;;;;;;;;;4965102;28;20093;-82
2022/04/11 06:32:04;;;;;;;8.82;3.38;;;;;;;;;;4968948;28;20126;-82
2022/04/11 06:34:34;;;;;;;8.68;3.45;;;;;;;;;;4968571;28;20186;-83
2022/04/11 06:37:00;;;;;;;8.23;3.20;;;;;;;;;;4979370;28;20500;-83
2022/04/11 06:39:27;;;;;;;8.45;3.08;;;;;;;;;;4969990;28;20046;-83
2022/04/11 06:41:53;;;;;;;5.93;2.88;;;;;;;;;;4985040;28;20058;-82
2022/04/11 06:44:19;;;;;;;8.52;3.05;;;;;;;;;;4986465;28;20739;-82
2022/04/11 06:46:46;;;;;;;6.85;2.88;;;;;;;;;;4966400;28;20092;-82
2022/04/11 06:49:12;;;;;;;7.10;3.08;;;;;;;;;;4975026;28;20049;-82
2022/04/11 06:51:38;;;;;;;6.47;3.05;;;;;;;;;;4961079;28;20486;-82
2022/04/11 06:54:04;;;;;;;4.57;3.10;;;;;;;;;;4963812;28;20026;-82
2022/04/11 06:56:30;;;;;;;13.10;3.53;;;;;;;;;;4969613;28;20478;-82
2022/04/11 06:58:56;;;;;;;6.05;2.75;;;;;;;;;;4981875;28;20034;-82
2022/04/11 07:01:22;;;;;;;6.03;3.10;;;;;;;;;;4970297;28;20019;-82
2022/04/11 07:03:48;;;;;;;6.38;3.10;;;;;;;;;;4981295;28;20073;-82
2022/04/11 07:06:14;;;;;;;9.80;2.40;;;;;;;;;;4977398;28;20098;-82
2022/04/11 07:08:40;;;;;;;11.65;2.90;;;;;;;;;;4955820;28;20129;-82
2022/04/11 07:11:06;;;;;;;6.78;2.45;;;;;;;;;;4978928;28;20110;-82
2022/04/11 07:13:33;;;;;;;8.50;2.50;;;;;;;;;;4956768;28;20135;-82
2022/04/11 07:15:59;;;;;;;7.22;2.60;;;;;;;;;;4965908;28;20034;-82
2022/04/11 07:18:27;;;;;;;9.27;2.85;;;;;;;;;;4980928;28;20041;-82
2022/04/11 07:20:56;;;;;;;8.60;2.70;;;;;;;;;;4977224;28;20029;-82
2022/04/11 07:23:23;;;;;;;5.63;2.30;;;;;;;;;;4979267;28;20034;-82
2022/04/11 07:25:49;;;;;;;8.02;2.58;;;;;;;;;;4980156;28;20436;-82
2022/04/11 07:28:17;;;;;;;3.97;2.38;;;;;;;;;;4978232;28;20061;-82
2022/04/11 07:30:43;;;;;;;5.43;2.75;;;;;;;;;;4961766;28;20037;-82
2022/04/11 07:33:09;;;;;;;4.45;2.28;;;;;;;;;;4977791;28;20557;-82
2022/04/11 07:35:36;;;;;;;4.53;2.03;;;;;;;;;;4977299;28;20039;-82
2022/04/11 07:38:01;;;;;;;9.15;2.60;;;;;;;;;;4962019;28;20261;-82
2022/04/11 07:40:28;;;;;;;3.75;1.92;;;;;;;;;;4965185;28;20322;-82
2022/04/11 07:42:54;;;;;;;5.65;2.38;;;;;;;;;;4974433;28;20697;-82
2022/04/11 07:45:21;;;;;;;11.82;2.72;;;;;;;;;;4960258;28;20037;-82
2022/04/11 07:47:47;;;;;;;10.00;2.17;;;;;;;;;;4964472;28;20042;-82
2022/04/11 07:50:13;;;;;;;6.88;2.30;;;;;;;;;;4959740;28;20026;-82
2022/04/11 07:52:40;;;;;;;9.60;2.20;;;;;;;;;;4968592;28;20035;-82
2022/04/11 07:55:07;;;;;;;5.80;2.22;;;;;;;;;;4962926;28;20038;-82
2022/04/11 07:57:33;;;;;;;3.17;1.80;;;;;;;;;;4973209;28;20122;-82
2022/04/11 07:59:59;;;;;;;6.93;2.28;;;;;;;;;;4962262;28;20043;-82
2022/04/11 08:02:25;;;;;;;10.77;1.95;;;;;;;;;;4980719;28;20046;-83
2022/04/11 08:04:52;;;;;;;8.13;2.78;;;;;;;;;;4968582;28;20145;-82
2022/04/11 08:07:18;;;;;;;2.72;1.45;;;;;;;;;;4975912;28;20847;-83
2022/04/11 08:09:44;;;;;;;6.45;1.55;;;;;;;;;;4963999;28;20065;-82
2022/04/11 08:12:10;;;;;;;6.40;1.65;;;;;;;;;;4981879;28;20022;-83
2022/04/11 08:14:36;;;;;;;1.65;1.45;;;;;;;;;;4964939;28;20081;-83
2022/04/11 08:17:03;;;;;;;10.90;1.67;;;;;;;;;;4982838;28;20061;-82
2022/04/11 08:19:32;;;;;;;4.38;1.33;;;;;;;;;;4966245;28;20034;-82
2022/04/11 08:21:59;;;;;;;7.47;1.60;;;;;;;;;;4967727;28;20479;-82
2022/04/11 08:24:25;;;;;;;4.13;1.58;;;;;;;;;;4967586;28;20502;-82
2022/04/11 08:26:51;;;;;;;4.45;1.15;;;;;;;;;;4970322;28;20498;-82
2022/04/11 08:29:20;;;;;;;7.47;1.77;;;;;;;;;;4963356;28;20043;-82
2022/04/11 08:31:46;;;;;;;3.05;1.25;;;;;;;;;;4982727;28;20105;-82
2022/04/11 08:34:12;;;;;;;7.03;1.75;;;;;;;;;;4976595;28;20121;-82
2022/04/11 08:36:38;;;;;;;6.05;2.13;;;;;;;;;;4968942;28;20035;-82
2022/04/11 08:39:04;;;;;;;2.90;1.58;;;;;;;;;;4976053;28;20027;-82
2022/04/11 08:41:37;;;;;;;7.35;1.92;;;;;;;;;;4971631;28;20037;-82
2022/04/11 08:44:04;;;;;;;9.25;2.13;;;;;;;;;;4977977;28;20133;-82
2022/04/11 08:46:37;;;;;;;7.95;2.00;;;;;;;;;;4969401;28;20034;-82
2022/04/11 08:49:06;;;;;;;5.38;1.83;;;;;;;;;;4983836;28;20668;-82
2022/04/11 08:51:33;;;;;;;3.92;2.25;;;;;;;;;;4987988;28;20037;-82
2022/04/11 08:54:04;;;;;;;5.75;1.77;;;;;;;;;;4973019;28;20442;-82
2022/04/11 08:56:30;;;;;;;4.90;2.20;;;;;;;;;;4977267;28;20027;-82
2022/04/11 08:58:56;;;;;;;5.32;2.53;;;;;;;;;;4969795;28;20081;-82
2022/04/11 09:01:23;;;;;;;3.15;2.05;;;;;;;;;;4985482;28;20548;-83
2022/04/11 09:03:49;;;;;;;4.10;1.98;;;;;;;;;;4985542;28;20034;-83
2022/04/11 09:06:16;;;;;;;4.13;2.17;;;;;;;;;;4965406;28;20203;-83
2022/04/11 09:08:49;;;;;;;7.70;2.08;;;;;;;;;;4967818;28;20037;-82
2022/04/11 09:11:26;;;;;;;5.95;2.40;;;;;;;;;;4979980;28;20465;-82
2022/04/11 09:13:53;;;;;;;6.70;1.77;;;;;;;;;;4985101;28;20022;-82
2022/04/11 09:16:19;;;;;;;5.32;1.80;;;;;;;;;;4981744;28;20034;-82
2022/04/11 09:18:49;;;;;;;2.20;1.70;;;;;;;;;;4959732;28;20126;-82
2022/04/11 09:21:15;;;;;;;7.40;1.88;;;;;;;;;;4980912;28;20414;-83
2022/04/11 09:23:41;;;;;;;3.75;1.92;;;;;;;;;;4965970;28;20385;-82
2022/04/11 09:26:24;;;;;;;5.93;1.80;;;;;;;;;;4962732;28;20030;-82
2022/04/11 09:29:06;;;;;;;3.35;1.70;;;;;;;;;;4985460;28;20076;-82
2022/04/11 09:31:32;;;;;;;7.75;1.90;;;;;;;;;;4982425;28;20039;-82
2022/04/11 09:33:59;;;;;;;5.25;2.22;;;;;;;;;;4986890;28;20085;-82
2022/04/11 09:36:43;;;;;;;5.43;2.70;;;;;;;;;;4966301;28;20406;-82
2022/04/11 09:39:09;;;;;;;4.20;2.10;;;;;;;;;;4985216;28;21595;-82
2022/04/11 09:41:37;;;;;;;4.57;1.80;;;;;;;;;;4963720;28;20038;-82
2022/04/11 09:44:25;;;;;;;5.03;1.77;;;;;;;;;;4986251;28;20108;-82
2022/04/11 09:46:53;;;;;;;4.95;2.25;;;;;;;;;;4981085;28;20101;-82
2022/04/11 09:49:19;;;;;;;3.30;2.08;;;;;;;;;;4967553;28;20077;-82
2022/04/11 09:52:04;;;;;;;12.10;1.95;;;;;;;;;;4986276;28;20034;-82
2022/04/11 09:54:31;;;;;;;7.57;3.17;;;;;;;;;;4967104;28;20069;-82
2022/04/11 09:57:01;;;;;;;7.38;2.15;;;;;;;;;;4967049;28;20662;-83
2022/04/11 09:59:27;;;;;;;8.32;3.00;;;;;;;;;;4983141;28;20137;-82
2022/04/11 10:01:54;;;;;;;6.15;2.05;;;;;;;;;;4965805;28;20039;-82
2022/04/11 10:04:20;;;;;;;5.05;1.83;;;;;;;;;;4985504;28;20037;-82
2022/04/11 10:06:47;;;;;;;5.75;2.20;;;;;;;;;;4967698;28;20126;-82
2022/04/11 10:09:13;;;;;;;3.70;2.22;;;;;;;;;;4981454;28;20037;-83
2022/04/11 10:11:40;;;;;;;5.45;2.28;;;;;;;;;;4983724;28;20030;-82
2022/04/11 10:14:06;;;;;;;7.30;2.22;;;;;;;;;;4978545;28;20043;-82
2022/04/11 10:16:32;;;;;;;8.52;2.03;;;;;;;;;;4979966;28;20018;-83
2022/04/11 10:19:02;;;;;;;6.88;2.00;;;;;;;;;;4967093;28;20498;-83
2022/04/11 10:21:29;;;;;;;3.83;2.08;;;;;;;;;;4983663;28;20023;-83
2022/04/11 10:24:05;;;;;;;5.47;1.95;;;;;;;;;;4985111;28;20654;-82
2022/04/11 10:26:31;;;;;;;;;;;;;;;;;;4983025;28;20030;-82
2022/04/11 10:29:00;;;;;;;4.72;1.77;;;;;;;;;;4962064;28;20021;-83
2022/04/11 10:31:36;;;;;;;2.28;1.65;;;;;;;;;;4970377;28;20041;-83
2022/04/11 10:34:02;;;;;;;4.75;1.98;;;;;;;;;;4980753;28;20771;-83
2022/04/11 10:36:35;;;;;;;6.50;2.22;;;;;;;;;;4967111;28;20042;-82
2022/04/11 10:39:13;;;;;;;3.05;1.80;;;;;;;;;;4971879;28;20032;-82
2022/04/11 10:41:57;;;;;;;4.90;1.90;;;;;;;;;;4983445;28;20030;-82
2022/04/11 10:44:33;;;;;;;5.38;1.75;;;;;;;;;;4963548;28;20048;-82
2022/04/11 10:47:09;;;;;;;8.70;2.30;;;;;;;;;;4972257;28;20145;-82
2022/04/11 10:49:50;;;;;;;7.88;2.03;;;;;;;;;;4974032;28;20046;-83
2022/04/11 10:52:32;;;;;;;4.13;1.90;;;;;;;;;;4979922;28;20038;-82
2022/04/11 10:55:11;;;;;;;6.70;2.05;;;;;;;;;;4962016;28;20030;-82
2022/04/11 10:57:39;;;;;;;4.28;2.00;;;;;;;;;;4962495;28;20031;-82
2022/04/11 11:00:15;;;;;;;4.07;1.83;;;;;;;;;;4980429;28;20030;-83
2022/04/11 11:02:51;;;;;;;4.20;2.03;;;;;;;;;;4983994;28;20030;-82
2022/04/11 11:05:30;;;;;;;6.68;2.50;;;;;;;;;;4968252;28;20102;-82
2022/04/11 11:08:12;;;;;;;4.28;2.03;;;;;;;;;;4982153;28;20474;-83
2022/04/11 11:10:59;;;;;;;3.67;1.80;;;;;;;;;;4979878;28;20065;-82
2022/04/11 11:13:28;;;;;;;3.75;2.22;;;;;;;;;;4975333;28;20117;-83
2022/04/11 11:15:59;;;;;;;9.90;2.33;;;;;;;;;;4976077;28;20482;-83
2022/04/11 11:18:26;;;;;;;5.38;2.30;;;;;;;;;;4982201;28;20034;-82
2022/04/11 11:20:52;;;;;;;7.95;2.15;;;;;;;;;;4978358;28;20030;-83
2022/04/11 11:23:21;;;;;;;4.68;2.30;;;;;;;;;;4965872;28;20438;-83
2022/04/11 11:25:51;;;;;;;4.20;2.33;;;;;;;;;;4967218;28;20047;-82
2022/04/11 11:28:17;;;;;;;2.85;1.95;;;;;;;;;;4978085;28;20046;-82
2022/04/11 11:30:43;;;;;;;3.47;2.22;;;;;;;;;;4970591;28;20026;-84
2022/04/11 11:33:12;;;;;;;3.92;2.38;;;;;;;;;;4988947;28;20669;-83
2022/04/11 11:35:46;;;;;;;5.05;2.45;;;;;;;;;;4965559;28;20030;-83
2022/04/11 11:38:12;;;;;;;9.23;2.50;;;;;;;;;;4975974;28;20022;-82
2022/04/11 11:40:43;;;;;;;6.65;2.60;;;;;;;;;;4972131;28;20108;-83
2022/04/11 11:43:13;;;;;;;6.00;2.22;;;;;;;;;;4979086;28;20051;-83
2022/04/11 11:45:41;;;;;;;6.82;2.40;;;;;;;;;;4957813;28;20716;-82
2022/04/11 11:48:39;;;;;;;5.10;2.75;;;;;;;;;;4979902;28;20992;-82
2022/04/11 11:51:05;;;;;;;6.82;2.63;;;;;;;;;;4938724;28;20541;-83
2022/04/11 11:53:41;;;;;;;3.83;2.08;;;;;;;;;;4959370;28;20045;-83
2022/04/11 11:56:08;;;;;;;6.35;2.65;;;;;;;;;;4961753;28;20053;-81
2022/04/11 11:58:38;;;;;;;6.18;2.80;;;;;;;;;;4979508;28;20041;-81
2022/04/11 12:01:10;;;;;;;8.25;2.60;;;;;;;;;;4980627;28;20030;-82
2022/04/11 12:06:27;;;;;;;5.75;2.78;;;;;;;;;;4981909;28;20080;-82
2022/04/11 12:09:03;;;;;;;5.97;3.10;;;;;;;;;;4964043;28;20443;-83
2022/04/11 12:11:30;;;;;;;4.32;2.75;;;;;;;;;;4959922;28;20074;-83
2022/04/11 12:14:09;;;;;;;4.60;2.65;;;;;;;;;;4978695;28;20105;-83
2022/04/11 12:16:38;;;;;;;5.70;2.38;;;;;;;;;;4963626;28;20056;-83
2022/04/11 12:19:05;;;;;;;4.30;2.60;;;;;;;;;;4968262;28;20630;-83
2022/04/11 12:21:44;;;;;;;5.53;2.75;;;;;;;;;;4982694;28;20030;-82
2022/04/11 12:24:10;;;;;;;12.40;4.97;;;;;;;;;;4980015;28;20025;-82
2022/04/11 12:26:37;;;;;;;4.68;2.70;;;;;;;;;;4967688;28;20053;-82
2022/04/11 12:29:11;;;;;;;4.20;2.75;;;;;;;;;;4985676;28;20042;-83
2022/04/11 12:31:39;;;;;;;4.90;3.05;;;;;;;;;;4969450;28;20038;-83
2022/04/11 12:34:12;;;;;;;4.03;3.05;;;;;;;;;;4970409;28;20045;-83
2022/04/11 12:36:39;;;;;;;5.20;2.80;;;;;;;;;;4979949;28;20022;-83
2022/04/11 12:39:11;;;;;;;4.78;2.92;;;;;;;;;;4968060;28;20109;-82
2022/04/11 12:41:40;;;;;;;4.25;2.35;;;;;;;;;;4982772;28;20107;-81
2022/04/11 12:44:08;;;;;;;6.15;2.92;;;;;;;;;;4988783;28;20058;-81
2022/04/11 12:46:35;;;;;;;4.72;2.40;;;;;;;;;;4984266;28;20018;-81
2022/04/11 12:49:11;;;;;;;8.63;3.05;;;;;;;;;;4965945;28;20041;-81
2022/04/11 12:51:38;;;;;;;4.45;3.15;;;;;;;;;;4985071;28;20038;-81
2022/04/11 12:54:07;;;;;;;10.05;3.20;;;;;;;;;;4982082;28;20089;-81
2022/04/11 12:56:47;;;;;;;10.40;2.85;;;;;;;;;;4966357;28;20021;-81
2022/04/11 12:59:32;;;;;;;8.18;3.15;;;;;;;;;;4982973;28;20034;-81
2022/04/11 13:01:58;;;;;;;4.20;2.87;;;;;;;;;;4974618;28;20072;-81
2022/04/11 13:04:25;;;;;;;4.88;2.78;;;;;;;;;;4964588;28;20038;-82
2022/04/11 13:06:53;;;;;;;9.23;2.80;;;;;;;;;;4967308;28;20573;-82
2022/04/11 13:09:20;;;;;;;6.13;2.60;;;;;;;;;;4981770;28;20026;-82
2022/04/11 13:11:47;;;;;;;7.45;3.75;;;;;;;;;;4983543;28;20034;-81
2022/04/11 13:14:13;;;;;;;6.25;2.83;;;;;;;;;;4966321;28;20022;-82
2022/04/11 13:19:24;;;;;;;7.95;2.85;;;;;;;;;;4982706;28;20136;-83
2022/04/11 13:21:50;;;;;;;5.40;2.92;;;;;;;;;;4984983;28;20030;-83
2022/04/11 13:24:16;;;;;;;7.50;3.17;;;;;;;;;;4981941;28;20712;-82
2022/04/11 13:26:42;;;;;;;4.95;2.65;;;;;;;;;;4982831;28;20026;-83
2022/04/11 13:29:08;;;;;;;3.73;2.90;;;;;;;;;;4984807;28;20103;-83
2022/04/11 13:31:35;;;;;;;3.45;2.63;;;;;;;;;;4981974;28;20130;-83
2022/04/11 13:34:01;;;;;;;6.95;3.13;;;;;;;;;;4989269;28;20057;-83
2022/04/11 13:36:27;;;;;;;4.35;3.25;;;;;;;;;;4981218;28;20360;-83
2022/04/11 13:38:53;;;;;;;6.85;2.60;;;;;;;;;;4984164;28;20561;-83
2022/04/11 13:41:22;;;;;;;5.82;2.53;;;;;;;;;;4988494;28;20030;-83
2022/04/11 13:43:55;;;;;;;8.40;3.30;;;;;;;;;;4971875;28;20112;-83
2022/04/11 13:46:21;;;;;;;7.38;3.20;;;;;;;;;;4970483;28;20046;-83
2022/04/11 13:48:47;;;;;;;4.57;3.22;;;;;;;;;;4966500;28;20053;-83
2022/04/11 13:51:13;;;;;;;5.35;2.92;;;;;;;;;;4966999;28;20026;-83
2022/04/11 13:53:39;;;;;;;8.13;3.17;;;;;;;;;;4964271;28;20118;-83
2022/04/11 13:56:06;;;;;;;3.15;2.67;;;;;;;;;;4980331;28;20109;-83
2022/04/11 13:58:32;;;;;;;6.82;2.80;;;;;;;;;;4980402;28;20018;-83
2022/04/11 14:00:58;;;;;;;6.00;2.63;;;;;;;;;;4979882;28;20367;-83
2022/04/11 14:03:24;;;;;;;7.78;3.30;;;;;;;;;;4979719;28;20383;-83
2022/04/11 14:05:50;;;;;;;10.00;3.92;;;;;;;;;;4983854;28;21247;-83
2022/04/11 14:08:16;;;;;;;6.45;3.25;;;;;;;;;;4966812;28;20038;-83
2022/04/11 14:10:45;;;;;;;4.53;3.00;;;;;;;;;;4982411;28;20034;-83
2022/04/11 14:13:11;;;;;;;5.25;3.17;;;;;;;;;;4979703;28;20556;-83
2022/04/11 14:15:37;;;;;;;5.25;3.08;;;;;;;;;;4989128;28;20489;-83
2022/04/11 14:18:03;;;;;;;5.70;3.20;;;;;;;;;;4970365;28;20022;-83
2022/04/11 14:20:29;;;;;;;4.85;2.95;;;;;;;;;;4985318;28;20035;-83
2022/04/11 14:22:55;;;;;;;6.72;3.15;;;;;;;;;;4962848;28;20366;-83
2022/04/11 14:25:22;;;;;;;5.43;3.40;;;;;;;;;;4964989;28;20089;-83
2022/04/11 14:27:48;;;;;;;4.88;3.13;;;;;;;;;;4965108;28;20043;-83
2022/04/11 14:30:14;;;;;;;5.38;3.40;;;;;;;;;;4968260;28;20046;-83
2022/04/11 14:32:40;;;;;;;11.30;3.28;;;;;;;;;;4980256;28;20034;-83
2022/04/11 14:35:06;;;;;;;7.60;3.92;;;;;;;;;;4967718;28;20433;-83
2022/04/11 14:37:32;;;;;;;5.05;2.90;;;;;;;;;;4972026;28;20825;-83
2022/04/11 14:39:59;;;;;;;4.47;3.35;;;;;;;;;;4965721;28;20129;-83
2022/04/11 14:42:25;;;;;;;6.15;3.42;;;;;;;;;;4981162;28;20040;-83
2022/04/11 14:44:51;;;;;;;8.68;4.45;;;;;;;;;;4982204;28;20030;-83
2022/04/11 14:47:17;;;;;;;5.82;3.15;;;;;;;;;;4979744;28;20074;-83